Terminal Aerodrome Forecast
Issued by NWS Pittsburgh, PA

Home | Current Version | Previous Version | Text Only | Print | Product List | Glossary On
Versions: 1 2 3 4 5 6 7 8 9 10 11 12 13 14 15 16 17 18 19 20 21 22 23 24 25 26 27 28 29 30
000
FTUS41 KPBZ 020538
TAFPIT
TAF
KPIT 020538Z 0206/0312 00000KT P6SM FEW050
     FM020900 00000KT 2SM BR BKN008
     FM021300 32002KT 4SM BR SCT010 BKN120
     FM021500 32005KT P6SM SCT050
     FM030900 03003KT 4SM BR SCT250=

USA.gov is the U.S. government's official web portal to all federal, state and local government web resources and services.